createdAt,value
2019-06-07T00:02:16.374Z,13.70
2019-06-07T00:04:49.007Z,13.70
2019-06-07T00:07:22.432Z,13.70
2019-06-07T00:09:55.845Z,13.70
2019-06-07T00:12:29.270Z,13.60
2019-06-07T00:15:02.698Z,13.60
2019-06-07T00:17:36.119Z,13.60
2019-06-07T00:20:14.771Z,13.60
2019-06-07T00:22:45.332Z,13.70
2019-06-07T00:25:24.126Z,13.70
2019-06-07T00:27:54.172Z,13.60
2019-06-07T00:30:42.348Z,13.60
2019-06-07T00:33:02.888Z,13.60
2019-06-07T00:35:36.303Z,13.60
2019-06-07T00:38:09.736Z,13.60
2019-06-07T00:40:43.151Z,13.50
2019-06-07T00:43:19.223Z,13.50
2019-06-07T00:45:51.738Z,13.50
2019-06-07T00:48:32.015Z,13.50
2019-06-07T00:51:00.304Z,13.50
2019-06-07T00:53:33.746Z,13.50
2019-06-07T00:56:07.150Z,13.30
2019-06-07T00:58:40.601Z,13.30
2019-06-07T01:01:17.604Z,13.20
2019-06-07T01:03:49.177Z,13.10
2019-06-07T01:06:24.470Z,13.10
2019-06-07T01:08:57.831Z,13.10
2019-06-07T01:11:31.251Z,13.10
2019-06-07T01:14:06.034Z,13.10
2019-06-07T01:16:56.247Z,13.10
2019-06-07T01:19:16.280Z,13.10
2019-06-07T01:21:49.903Z,13.10
2019-06-07T01:24:25.812Z,13.10
2019-06-07T01:26:58.471Z,13.10
2019-06-07T01:29:31.906Z,13.10
2019-06-07T01:32:05.311Z,13.10
2019-06-07T01:34:38.745Z,13.10
2019-06-07T01:37:12.157Z,13.00
2019-06-07T01:39:45.604Z,13.10
2019-06-07T01:42:20.433Z,13.10
2019-06-07T01:44:54.166Z,13.10
2019-06-07T01:47:31.102Z,13.20
2019-06-07T01:50:03.802Z,13.20
2019-06-07T01:52:37.225Z,13.10
2019-06-07T01:55:10.725Z,13.20
2019-06-07T01:57:48.350Z,13.20
2019-06-07T02:00:22.089Z,13.20
2019-06-07T02:02:55.559Z,13.20
2019-06-07T02:05:31.009Z,13.20
2019-06-07T02:08:04.271Z,13.20
2019-06-07T02:10:37.700Z,13.20
2019-06-07T02:13:11.120Z,13.20
2019-06-07T02:15:44.619Z,13.20
2019-06-07T02:18:21.819Z,13.20
2019-06-07T02:20:53.200Z,13.20
2019-06-07T02:23:29.208Z,13.30
2019-06-07T02:26:01.784Z,13.30
2019-06-07T02:28:44.899Z,13.30
2019-06-07T02:31:10.368Z,13.20
2019-06-07T02:33:43.791Z,13.20
2019-06-07T02:36:17.221Z,13.30
2019-06-07T02:38:50.640Z,13.20
2019-06-07T02:41:27.211Z,13.30
2019-06-07T02:43:59.212Z,13.30
2019-06-07T02:46:45.382Z,13.30
2019-06-07T02:49:07.780Z,13.40
2019-06-07T02:51:42.128Z,13.40
2019-06-07T02:54:15.925Z,13.40
2019-06-07T02:56:58.129Z,13.40
2019-06-07T02:59:52.696Z,13.30
2019-06-07T03:01:59.739Z,13.30
2019-06-07T03:04:40.588Z,13.30
2019-06-07T03:07:11.481Z,13.30
2019-06-07T03:09:46.632Z,13.30
2019-06-07T03:12:21.297Z,13.40
2019-06-07T03:14:55.959Z,13.40
2019-06-07T03:17:40.886Z,13.40
2019-06-07T03:20:16.666Z,13.40
2019-06-07T03:22:51.404Z,13.30
2019-06-07T03:25:28.222Z,13.40
2019-06-07T03:28:01.847Z,13.40
2019-06-07T03:30:47.047Z,13.50
2019-06-07T03:33:10.439Z,13.50
2019-06-07T03:35:43.895Z,13.50
2019-06-07T03:38:17.307Z,13.50
2019-06-07T03:40:50.759Z,13.50
2019-06-07T03:43:24.179Z,13.50
2019-06-07T03:45:57.631Z,13.40
2019-06-07T03:48:32.916Z,13.40
2019-06-07T03:51:23.672Z,13.40
2019-06-07T03:53:41.368Z,13.40
2019-06-07T03:56:15.635Z,13.40
2019-06-07T03:58:50.567Z,13.40
2019-06-07T04:01:24.139Z,13.50
2019-06-07T04:03:57.575Z,13.50
2019-06-07T04:06:33.721Z,13.50
2019-06-07T04:09:07.353Z,13.50
2019-06-07T04:11:40.976Z,13.50
2019-06-07T04:14:14.495Z,13.60
2019-06-07T04:16:47.932Z,13.60
2019-06-07T04:19:21.362Z,13.60
2019-06-07T04:21:54.788Z,13.60
2019-06-07T04:24:28.614Z,13.60
2019-06-07T04:27:02.405Z,13.60
2019-06-07T04:29:59.316Z,13.70
2019-06-07T04:32:10.976Z,13.70
2019-06-07T04:34:44.411Z,13.70
2019-06-07T04:37:18.353Z,13.70
2019-06-07T04:39:53.823Z,13.70
2019-06-07T04:42:34.422Z,13.70
2019-06-07T04:45:30.736Z,13.70
2019-06-07T04:47:44.364Z,13.80
2019-06-07T04:50:17.904Z,13.80
2019-06-07T04:52:51.394Z,13.80
2019-06-07T04:55:24.899Z,13.80
2019-06-07T04:57:58.773Z,13.90
2019-06-07T05:00:56.315Z,13.90
2019-06-07T05:03:11.468Z,13.90
2019-06-07T05:05:44.900Z,13.90
2019-06-07T05:08:28.248Z,13.90
2019-06-07T05:10:53.487Z,14.00
2019-06-07T05:13:26.923Z,14.00
2019-06-07T05:16:00.355Z,14.10
2019-06-07T05:18:36.221Z,14.10
2019-06-07T05:21:08.946Z,14.20
2019-06-07T05:24:05.385Z,14.20
2019-06-07T05:26:17.545Z,14.20
2019-06-07T05:28:51.000Z,14.20
2019-06-07T05:31:24.420Z,14.30
2019-06-07T05:33:57.856Z,14.40
2019-06-07T05:36:31.504Z,14.50
2019-06-07T05:39:08.067Z,14.50
2019-06-07T05:41:44.162Z,14.60
2019-06-07T05:44:16.796Z,14.70
2019-06-07T05:46:50.207Z,14.80
2019-06-07T05:49:23.640Z,14.80
2019-06-07T05:51:57.059Z,14.90
2019-06-07T05:54:30.502Z,14.90
2019-06-07T05:57:04.019Z,15.00
2019-06-07T05:59:41.070Z,15.00
2019-06-07T06:02:22.279Z,15.20
2019-06-07T06:04:49.199Z,15.30
2019-06-07T06:07:22.900Z,15.30
2019-06-07T06:09:56.342Z,15.40
2019-06-07T06:12:35.514Z,15.50
2019-06-07T06:15:08.689Z,15.50
2019-06-07T06:17:45.963Z,15.60
2019-06-07T06:20:17.423Z,15.70
2019-06-07T06:22:51.291Z,15.80
2019-06-07T06:25:33.779Z,15.80
2019-06-07T06:28:10.988Z,15.90
2019-06-07T06:30:35.900Z,15.90
2019-06-07T06:33:27.056Z,15.90
2019-06-07T06:35:47.522Z,16.00
2019-06-07T06:38:19.983Z,16.00
2019-06-07T06:41:13.911Z,16.00
2019-06-07T06:43:28.569Z,16.10
2019-06-07T06:46:02.047Z,16.10
2019-06-07T06:48:35.456Z,16.10
2019-06-07T06:51:09.424Z,16.20
2019-06-07T06:53:43.798Z,16.30
2019-06-07T06:56:18.167Z,16.30
2019-06-07T07:01:26.947Z,16.40
2019-06-07T07:04:12.167Z,16.40
2019-06-07T07:06:36.958Z,16.50
2019-06-07T07:09:10.367Z,16.50
2019-06-07T07:11:55.247Z,16.70
2019-06-07T07:14:19.029Z,16.70
2019-06-07T07:16:56.048Z,16.80
2019-06-07T07:19:27.635Z,16.80
2019-06-07T07:22:01.120Z,16.80
2019-06-07T07:24:35.044Z,16.90
2019-06-07T07:27:08.485Z,16.90
2019-06-07T07:29:45.982Z,17.00
2019-06-07T07:32:17.092Z,17.00
2019-06-07T07:34:54.500Z,17.00
2019-06-07T07:37:25.793Z,17.10
2019-06-07T07:40:09.458Z,17.10
2019-06-07T07:42:34.723Z,17.20
2019-06-07T07:45:08.244Z,17.20
2019-06-07T07:47:58.363Z,17.30
2019-06-07T07:50:17.041Z,17.40
2019-06-07T07:52:59.196Z,17.50
2019-06-07T07:55:25.863Z,17.60
2019-06-07T07:58:01.616Z,17.70
2019-06-07T08:00:52.531Z,17.70
2019-06-07T08:03:10.068Z,17.80
2019-06-07T08:05:45.649Z,17.80
2019-06-07T08:08:18.942Z,18.00
2019-06-07T08:10:55.839Z,18.00
2019-06-07T08:13:28.052Z,18.10
2019-06-07T08:16:11.216Z,18.10
2019-06-07T08:18:36.883Z,18.20
2019-06-07T08:21:24.547Z,18.30
2019-06-07T08:23:47.413Z,18.30
2019-06-07T08:26:20.600Z,18.30
2019-06-07T08:28:58.447Z,18.40
2019-06-07T08:31:29.264Z,18.50
2019-06-07T08:34:02.755Z,18.50
2019-06-07T08:36:42.432Z,18.50
2019-06-07T08:39:11.341Z,18.50
2019-06-07T08:41:59.413Z,18.60
2019-06-07T08:44:23.795Z,18.50
2019-06-07T08:47:12.568Z,18.60
2019-06-07T08:49:30.210Z,18.70
2019-06-07T08:52:11.201Z,18.90
2019-06-07T08:54:38.787Z,18.90
2019-06-07T08:57:21.035Z,19.00
2019-06-07T08:59:47.365Z,19.10
2019-06-07T09:02:23.915Z,19.20
2019-06-07T09:04:58.599Z,19.20
2019-06-07T09:07:32.209Z,19.30
2019-06-07T09:10:14.600Z,19.40
2019-06-07T09:12:43.859Z,19.40
2019-06-07T09:15:23.261Z,19.50
2019-06-07T09:18:34.922Z,19.50
2019-06-07T09:20:43.487Z,19.60
2019-06-07T09:23:18.001Z,19.60
2019-06-07T09:26:00.821Z,19.60
2019-06-07T09:28:27.291Z,19.70
2019-06-07T09:31:07.820Z,19.70
2019-06-07T09:33:35.940Z,19.80
2019-06-07T09:36:12.942Z,19.80
2019-06-07T09:38:45.446Z,19.90
2019-06-07T09:41:18.976Z,19.90
2019-06-07T09:44:04.549Z,20.00
2019-06-07T09:46:27.583Z,20.00
2019-06-07T09:49:14.184Z,20.10
2019-06-07T09:51:36.185Z,20.10
2019-06-07T09:54:11.527Z,20.10
2019-06-07T09:56:46.422Z,20.20
2019-06-07T09:59:20.093Z,20.30
2019-06-07T10:01:53.532Z,20.30
2019-06-07T10:04:31.183Z,20.30
2019-06-07T10:07:09.039Z,20.40
2019-06-07T10:12:12.635Z,20.50
2019-06-07T10:14:46.057Z,20.60
2019-06-07T10:17:19.496Z,20.60
2019-06-07T10:19:52.909Z,20.70
2019-06-07T10:22:26.353Z,20.70
2019-06-07T10:24:59.768Z,20.80
2019-06-07T10:27:33.274Z,20.90
2019-06-07T10:30:08.346Z,20.90
2019-06-07T10:32:43.456Z,20.90
2019-06-07T10:35:17.035Z,20.90
2019-06-07T10:37:50.537Z,20.90
2019-06-07T10:40:24.037Z,21.00
2019-06-07T10:42:57.475Z,21.00
2019-06-07T10:45:30.909Z,21.00
2019-06-07T10:48:05.643Z,21.10
2019-06-07T10:50:39.526Z,21.10
2019-06-07T10:53:13.088Z,21.20
2019-06-07T10:55:46.505Z,21.20
2019-06-07T10:58:20.473Z,21.30
2019-06-07T11:00:53.898Z,21.40
2019-06-07T11:03:30.241Z,21.40
2019-06-07T11:06:03.768Z,21.50
2019-06-07T11:08:37.256Z,21.50
2019-06-07T11:11:10.664Z,21.60
2019-06-07T11:13:44.106Z,21.60
2019-06-07T11:16:17.518Z,21.70
2019-06-07T11:18:50.950Z,21.80
2019-06-07T11:21:24.406Z,21.80
2019-06-07T11:23:57.884Z,21.90
2019-06-07T11:26:31.296Z,22.00
2019-06-07T11:29:06.546Z,22.00
2019-06-07T11:31:40.180Z,22.10
2019-06-07T11:34:14.673Z,22.20
2019-06-07T11:36:51.041Z,22.30
2019-06-07T11:39:23.576Z,22.30
2019-06-07T11:41:56.986Z,22.40
2019-06-07T11:44:30.419Z,22.50
2019-06-07T11:47:06.397Z,22.60
2019-06-07T11:49:39.332Z,22.60
2019-06-07T11:52:13.906Z,22.70
2019-06-07T11:54:48.236Z,22.80
2019-06-07T11:57:22.056Z,22.80
2019-06-07T11:59:55.501Z,22.90
2019-06-07T12:02:28.922Z,22.90
2019-06-07T12:05:02.354Z,23.00
2019-06-07T12:07:35.796Z,23.10
2019-06-07T12:10:11.245Z,23.10
2019-06-07T12:12:46.087Z,23.20
2019-06-07T12:15:20.255Z,23.20
2019-06-07T12:17:53.696Z,23.30
2019-06-07T12:20:27.119Z,23.40
2019-06-07T12:23:00.611Z,23.50
2019-06-07T12:25:34.116Z,23.50
2019-06-07T12:28:07.536Z,23.60
2019-06-07T12:30:41.044Z,23.60
2019-06-07T12:33:15.503Z,23.70
2019-06-07T12:35:49.217Z,23.80
2019-06-07T12:38:23.151Z,23.80
2019-06-07T12:40:58.128Z,23.90
2019-06-07T12:43:31.730Z,23.90
2019-06-07T12:46:05.159Z,24.00
2019-06-07T12:48:38.664Z,24.00
2019-06-07T12:51:13.150Z,24.10
2019-06-07T12:53:46.789Z,24.10
2019-06-07T12:56:20.218Z,24.20
2019-06-07T12:58:53.640Z,24.20
2019-06-07T13:01:27.089Z,24.20
2019-06-07T13:04:00.506Z,24.30
2019-06-07T13:06:34.003Z,24.40
2019-06-07T13:09:07.601Z,24.40
2019-06-07T13:11:41.019Z,24.50
2019-06-07T13:14:15.910Z,24.50
2019-06-07T13:16:49.766Z,24.60
2019-06-07T13:19:24.350Z,24.60
2019-06-07T13:21:57.860Z,24.70
2019-06-07T13:24:31.291Z,24.70
2019-06-07T13:27:04.708Z,24.70
2019-06-07T13:29:38.143Z,24.80
2019-06-07T13:32:11.668Z,24.90
2019-06-07T13:34:45.249Z,24.90
2019-06-07T13:37:19.647Z,24.90
2019-06-07T13:39:53.419Z,25.00
2019-06-07T13:42:26.827Z,25.00
2019-06-07T13:45:00.273Z,25.00
2019-06-07T13:47:33.695Z,25.10
2019-06-07T13:50:08.098Z,25.10
2019-06-07T13:52:42.117Z,25.20
2019-06-07T13:55:17.745Z,25.20
2019-06-07T13:57:51.385Z,25.30
2019-06-07T14:00:24.929Z,25.30
2019-06-07T14:02:58.395Z,25.30
2019-06-07T14:05:31.834Z,25.40
2019-06-07T14:08:05.283Z,25.40
2019-06-07T14:10:38.720Z,25.40
2019-06-07T14:13:12.128Z,25.50
2019-06-07T14:15:45.667Z,25.60
2019-06-07T14:18:20.388Z,25.70
2019-06-07T14:20:54.117Z,25.90
2019-06-07T14:23:44.240Z,26.00
2019-06-07T14:26:02.687Z,26.00
2019-06-07T14:28:36.125Z,26.20
2019-06-07T14:31:09.601Z,26.20
2019-06-07T14:33:43.037Z,26.30
2019-06-07T14:36:16.552Z,26.30
2019-06-07T14:38:49.973Z,26.50
2019-06-07T14:41:23.419Z,26.90
2019-06-07T14:43:56.843Z,27.50
2019-06-07T14:46:30.311Z,28.80
2019-06-07T14:49:03.885Z,29.90
2019-06-07T14:51:38.153Z,30.20
2019-06-07T14:54:11.564Z,29.70
2019-06-07T14:56:45.080Z,29.50
2019-06-07T14:59:18.544Z,29.20
2019-06-07T15:01:51.987Z,29.20
2019-06-07T15:04:26.425Z,29.20
2019-06-07T15:07:00.108Z,29.10
2019-06-07T15:09:35.060Z,29.10
2019-06-07T15:12:23.907Z,29.10
2019-06-07T15:14:43.880Z,29.00
2019-06-07T15:17:17.325Z,28.80
2019-06-07T15:19:50.756Z,28.60
2019-06-07T15:22:24.273Z,28.50
2019-06-07T15:24:57.686Z,28.50
2019-06-07T15:27:31.330Z,28.30
2019-06-07T15:30:11.279Z,28.20
2019-06-07T15:32:45.048Z,28.10
2019-06-07T15:35:18.676Z,28.40
2019-06-07T15:37:52.107Z,29.30
2019-06-07T15:40:25.523Z,30.40
2019-06-07T15:42:58.956Z,31.30
2019-06-07T15:45:33.523Z,32.10
2019-06-07T15:48:07.416Z,32.50
2019-06-07T15:50:40.851Z,33.10
2019-06-07T15:53:14.270Z,33.20
2019-06-07T15:55:47.707Z,33.00
2019-06-07T15:58:21.188Z,33.30
2019-06-07T16:00:54.666Z,33.10
2019-06-07T16:03:28.120Z,33.50
2019-06-07T16:06:01.595Z,33.60
2019-06-07T16:08:36.246Z,34.20
2019-06-07T16:11:10.044Z,33.60
2019-06-07T16:13:43.455Z,33.00
2019-06-07T16:16:16.964Z,32.80
2019-06-07T16:18:50.425Z,31.90
2019-06-07T16:21:23.852Z,31.50
2019-06-07T16:23:57.269Z,31.40
2019-06-07T16:26:30.801Z,31.50
2019-06-07T16:29:04.664Z,31.00
2019-06-07T16:31:38.731Z,30.50
2019-06-07T16:34:12.388Z,30.00
2019-06-07T16:36:46.961Z,29.70
2019-06-07T16:39:20.540Z,29.30
2019-06-07T16:41:53.976Z,28.90
2019-06-07T16:44:27.379Z,28.60
2019-06-07T16:47:00.825Z,28.40
2019-06-07T16:49:34.235Z,28.20
2019-06-07T16:52:07.737Z,28.00
2019-06-07T16:54:41.519Z,27.70
2019-06-07T16:57:15.145Z,27.70
2019-06-07T16:59:49.690Z,27.60
2019-06-07T17:02:23.727Z,27.60
2019-06-07T17:04:57.145Z,27.50
2019-06-07T17:07:30.607Z,27.40
2019-06-07T17:10:08.614Z,27.30
2019-06-07T17:12:42.878Z,27.20
2019-06-07T17:15:17.383Z,27.10
2019-06-07T17:17:50.807Z,27.00
2019-06-07T17:20:24.286Z,26.90
2019-06-07T17:22:57.737Z,26.70
2019-06-07T17:25:31.159Z,26.60
2019-06-07T17:28:04.721Z,26.60
2019-06-07T17:30:38.168Z,26.40
2019-06-07T17:33:11.618Z,26.30
2019-06-07T17:35:46.423Z,26.20
2019-06-07T17:38:20.144Z,26.20
2019-06-07T17:40:53.567Z,26.10
2019-06-07T17:43:27.011Z,26.00
2019-06-07T17:46:00.440Z,26.00
2019-06-07T17:48:33.860Z,25.90
2019-06-07T17:51:07.274Z,25.80
2019-06-07T17:53:41.852Z,25.70
2019-06-07T17:56:15.607Z,25.70
2019-06-07T17:58:49.059Z,25.60
2019-06-07T18:01:23.759Z,25.50
2019-06-07T18:03:57.193Z,25.50
2019-06-07T18:06:31.560Z,25.50
2019-06-07T18:09:07.608Z,25.30
2019-06-07T18:11:41.011Z,25.20
2019-06-07T18:14:14.511Z,24.90
2019-06-07T18:16:48.429Z,24.80
2019-06-07T18:19:22.040Z,24.70
2019-06-07T18:21:58.705Z,24.70
2019-06-07T18:24:30.606Z,24.60
2019-06-07T18:27:06.990Z,24.40
2019-06-07T18:29:39.181Z,24.30
2019-06-07T18:32:13.626Z,24.10
2019-06-07T18:34:48.676Z,24.10
2019-06-07T18:37:22.203Z,24.00
2019-06-07T18:39:55.620Z,23.90
2019-06-07T18:42:29.059Z,23.70
2019-06-07T18:45:02.481Z,23.50
2019-06-07T18:47:36.108Z,23.30
2019-06-07T18:50:09.601Z,23.00
2019-06-07T18:52:44.626Z,22.60
2019-06-07T18:55:18.344Z,22.00
2019-06-07T18:57:52.207Z,21.50
2019-06-07T19:00:27.695Z,20.90
2019-06-07T19:03:01.568Z,20.30
2019-06-07T19:05:35.049Z,19.80
2019-06-07T19:08:08.467Z,19.50
2019-06-07T19:10:41.935Z,19.30
2019-06-07T19:13:15.369Z,19.40
2019-06-07T19:15:49.364Z,19.20
2019-06-07T19:18:23.183Z,19.00
2019-06-07T19:20:56.615Z,18.90
2019-06-07T19:23:30.118Z,18.90
2019-06-07T19:26:03.539Z,19.00
2019-06-07T19:28:36.988Z,18.80
2019-06-07T19:31:10.412Z,18.80
2019-06-07T19:33:49.183Z,18.60
2019-06-07T19:36:18.990Z,18.60
2019-06-07T19:38:53.774Z,18.40
2019-06-07T19:41:27.407Z,18.30
2019-06-07T19:44:00.848Z,18.10
2019-06-07T19:46:34.262Z,18.00
2019-06-07T19:49:07.722Z,18.00
2019-06-07T19:51:41.124Z,17.90
2019-06-07T19:54:14.551Z,17.90
2019-06-07T19:56:47.971Z,17.60
2019-06-07T19:59:21.409Z,17.60
2019-06-07T20:01:55.757Z,17.40
2019-06-07T20:04:29.525Z,17.10
2019-06-07T20:07:05.224Z,16.80
2019-06-07T20:09:38.141Z,16.30
2019-06-07T20:12:12.132Z,16.00
2019-06-07T20:14:45.619Z,15.90
2019-06-07T20:17:20.576Z,15.80
2019-06-07T20:19:54.006Z,15.70
2019-06-07T20:22:27.425Z,15.50
2019-06-07T20:25:00.921Z,15.20
2019-06-07T20:27:34.356Z,14.80
2019-06-07T20:30:10.620Z,14.70
2019-06-07T20:32:44.035Z,14.50
2019-06-07T20:35:17.534Z,14.50
2019-06-07T20:37:50.956Z,14.50
2019-06-07T20:40:25.026Z,14.50
2019-06-07T20:42:59.356Z,14.50
2019-06-07T20:45:34.371Z,14.60
2019-06-07T20:48:08.435Z,14.70
2019-06-07T20:50:42.371Z,14.80
2019-06-07T20:53:15.791Z,15.00
2019-06-07T20:55:49.224Z,15.10
2019-06-07T20:58:23.915Z,15.30
2019-06-07T21:00:58.511Z,15.40
2019-06-07T21:03:32.176Z,15.50
2019-06-07T21:06:05.613Z,15.60
2019-06-07T21:08:39.032Z,15.70
2019-06-07T21:11:12.447Z,15.70
2019-06-07T21:13:45.881Z,15.70
2019-06-07T21:16:20.959Z,15.80
2019-06-07T21:18:54.376Z,15.90
2019-06-07T21:21:27.810Z,16.00
2019-06-07T21:24:02.464Z,16.00
2019-06-07T21:26:36.080Z,16.00
2019-06-07T21:29:09.527Z,16.00
2019-06-07T21:31:42.935Z,16.10
2019-06-07T21:34:16.376Z,16.10
2019-06-07T21:36:49.800Z,16.20
2019-06-07T21:39:23.439Z,16.20
2019-06-07T21:41:56.873Z,16.10
2019-06-07T21:44:30.316Z,16.10
2019-06-07T21:47:04.234Z,16.10
2019-06-07T21:49:37.925Z,16.10
2019-06-07T21:52:11.334Z,16.00
2019-06-07T21:54:44.800Z,16.00
2019-06-07T21:57:18.271Z,16.00
2019-06-07T21:59:51.713Z,16.10
2019-06-07T22:02:25.208Z,16.10
2019-06-07T22:04:58.653Z,16.10
2019-06-07T22:07:32.081Z,16.10
2019-06-07T22:10:08.049Z,16.10
2019-06-07T22:12:41.856Z,16.10
2019-06-07T22:15:31.122Z,16.10
2019-06-07T22:17:51.327Z,16.10
2019-06-07T22:20:24.761Z,16.10
2019-06-07T22:22:58.184Z,16.10
2019-06-07T22:25:31.641Z,16.10
2019-06-07T22:28:06.024Z,16.10
2019-06-07T22:30:39.875Z,16.10
2019-06-07T22:33:13.412Z,16.20
2019-06-07T22:35:48.299Z,16.20
2019-06-07T22:38:21.720Z,16.20
2019-06-07T22:40:55.150Z,16.20
2019-06-07T22:43:29.811Z,16.10
2019-06-07T22:46:03.240Z,16.10
2019-06-07T22:48:36.669Z,16.10
2019-06-07T22:51:12.426Z,16.20
2019-06-07T22:53:48.702Z,16.10
2019-06-07T22:56:23.763Z,16.20
2019-06-07T22:58:57.247Z,16.10
2019-06-07T23:01:30.755Z,16.20
2019-06-07T23:04:04.228Z,16.10
2019-06-07T23:06:39.223Z,16.10
2019-06-07T23:09:12.906Z,16.00
2019-06-07T23:11:48.391Z,16.00
2019-06-07T23:14:21.851Z,16.00
2019-06-07T23:16:56.232Z,16.10
2019-06-07T23:19:29.891Z,16.10
2019-06-07T23:22:03.416Z,16.00
2019-06-07T23:24:36.912Z,16.00
2019-06-07T23:27:12.678Z,16.00
2019-06-07T23:29:46.444Z,16.00
2019-06-07T23:32:21.478Z,16.10
2019-06-07T23:34:55.252Z,16.10
2019-06-07T23:37:28.675Z,16.00
2019-06-07T23:40:02.095Z,16.00
2019-06-07T23:42:35.531Z,16.00
2019-06-07T23:45:09.122Z,16.00
2019-06-07T23:47:42.563Z,16.00
2019-06-07T23:50:17.660Z,16.00
2019-06-07T23:52:51.349Z,16.00
2019-06-07T23:55:24.768Z,16.00
2019-06-07T23:57:58.195Z,16.00
